Flight Track Log - Related Links

Times and Time Zones

All times are in EDT time to prevent confusion due to time zone crossing. See the GJS6221 flight status page for this flight to view local times or setup timezone preferences in your user account.

Time Position Orientation Groundspeed Altitude Reporting Facility
EDT Latitude Longitude Course Direction KTS MPH feet Rate Location/Type
Wed 02:18:53 PM 40.7167 -73.8333 225° Southwest 194 223 3,700  Level New York TRACON
Wed 02:19:53 PM 40.6667 -73.8500 194° South 259 298 6,100 2,500 Climbing New York TRACON
Wed 02:20:53 PM 40.6000 -73.9167 217° Southwest 290 334 8,700 2,337 Climbing New York TRACON
Wed 02:23:03 PM 40.4353 -74.0350 209° Southwest 313 360 13,500 2,179 Climbing New York Center
Wed 02:24:00 PM 40.2719 -74.3622 225° Southwest  Level Estimated
Wed 02:24:03 PM 40.3569 -74.0747 201° Southwest 333 383 15,600  Level New York Center
Wed 02:25:03 PM 40.2556 -74.1269 201° Southwest 351 404 17,900 1,850 Climbing New York Center
Wed 02:26:03 PM 40.1603 -74.1739 201° Southwest 358 412 19,300 1,050 Climbing New York Center
Wed 02:27:03 PM 40.0767 -74.2567 217° Southwest 363 418 20,000 350 Climbing New York Center
Wed 02:28:03 PM 39.9947 -74.3500 221° Southwest 379 436 20,000 822 Level New York Center
Wed 02:30:20 PM 39.8153 -74.5489 220° Southwest 389 448 22,700 1,323 Climbing Washington Center
Wed 02:31:18 PM 39.7347 -74.6392 221° Southwest 384 442 24,300 1,373 Climbing Washington Center
Wed 02:32:18 PM 39.6519 -74.7264 219° Southwest 384 442 25,400 1,041 Climbing Washington Center
Wed 02:33:19 PM 39.5672 -74.8217 221° Southwest 395 455 26,400 984 Climbing Washington Center
Wed 02:34:20 PM 39.4761 -74.9194 220° Southwest 408 470 27,400 984 Climbing Washington Center
Wed 02:35:21 PM 39.3892 -75.0169 221° Southwest 418 481 28,400 1,017 Climbing Washington Center
Wed 02:36:18 PM 39.2936 -75.1117 218° Southwest 424 488 29,400 1,017 Climbing Washington Center
Wed 02:37:19 PM 39.1833 -75.1631 200° South 424 488 30,400 992 Climbing Washington Center
Wed 02:38:19 PM 39.0689 -75.2147 199° South 424 488 31,400 1,000 Climbing Washington Center
Wed 02:39:19 PM 38.9586 -75.2581 197° South 429 494 32,400 1,041 Climbing Washington Center
Wed 02:40:20 PM 38.8461 -75.3039 198° South 424 488 33,500 1,091 Climbing Washington Center
Wed 02:41:20 PM 38.7378 -75.3494 198° South 424 488 34,600 1,119 Climbing Washington Center
Wed 02:42:18 PM 38.6317 -75.3978 200° South 424 488 35,700 655 Climbing Washington Center
Wed 02:43:19 PM 38.5233 -75.4378 196° South 419 482 35,900 99 Climbing Washington Center
Wed 02:44:19 PM 38.4192 -75.4806 198° South 407 468 35,900  Level Washington Center
Wed 02:45:20 PM 38.3169 -75.5389 204° Southwest 401 461 35,900 50 Level Washington Center
Wed 02:46:18 PM 38.2272 -75.6181 215° Southwest 401 461 36,000 50 Climbing Washington Center
Wed 02:47:19 PM 38.1375 -75.7000 216° Southwest 401 461 36,000 98 Level Washington Center
Wed 02:48:20 PM 38.0458 -75.7894 218° Southwest 408 470 36,200 454 Climbing Washington Center
Wed 02:49:18 PM 37.9558 -75.8761 217° Southwest 413 475 36,900 706 Climbing Washington Center
Wed 02:50:19 PM 37.8639 -75.9600 216° Southwest 413 475 37,600 541 Climbing Washington Center
Wed 02:51:20 PM 37.7739 -76.0436 216° Southwest 413 475 38,000 149 Climbing Washington Center
Wed 02:52:20 PM 37.6861 -76.1350 219° Southwest 413 475 37,900  Descending Washington Center
Wed 02:53:18 PM 37.5917 -76.2103 212° Southwest 413 475 38,000 50 Climbing Washington Center
Wed 02:54:19 PM 37.5017 -76.2961 217° Southwest 407 468 38,000  Level Washington Center
Wed 02:55:20 PM 37.4197 -76.3736 217° Southwest 407 468 38,000  Level Washington Center
Wed 02:56:18 PM 37.3317 -76.4564 217° Southwest 412 474 38,000  Level Washington Center
Wed 02:57:19 PM 37.2350 -76.5519 218° Southwest 412 474 38,000  Level Washington Center
Wed 02:58:20 PM 37.1467 -76.6419 219° Southwest 412 474 38,000  Level Washington Center
Wed 02:59:21 PM 37.0561 -76.7292 218° Southwest 412 474 38,000  Level Washington Center
Wed 03:00:18 PM 36.9656 -76.8161 218° Southwest 417 480 38,000  Level Washington Center
Wed 03:01:20 PM 36.8769 -76.9058 219° Southwest 417 480 38,000  Level Washington Center
Wed 03:02:20 PM 36.7864 -76.9950 218° Southwest 417 480 38,000  Level Washington Center
Wed 03:03:18 PM 36.6975 -77.0814 218° Southwest 417 480 38,000  Level Washington Center
Wed 03:04:19 PM 36.6153 -77.1600 218° Southwest 417 480 38,000  Level Washington Center
Wed 03:05:20 PM 36.5264 -77.2461 218° Southwest 417 480 38,000  Level Washington Center
Wed 03:06:20 PM 36.4356 -77.3347 218° Southwest 417 480 38,000  Level Washington Center
Wed 03:07:21 PM 36.3444 -77.4203 217° Southwest 417 480 38,000  Level Washington Center
Wed 03:08:18 PM 36.2597 -77.5058 219° Southwest 409 471 38,000  Level Washington Center
Wed 03:09:18 PM 36.1706 -77.5911 218° Southwest 404 465 38,000  Level Washington Center
Wed 03:10:19 PM 36.0794 -77.6764 217° Southwest 404 465 38,000  Level Washington Center
Wed 03:11:20 PM 35.9903 -77.7639 218° Southwest 404 465 38,000  Level Washington Center
Wed 03:12:20 PM 35.9011 -77.8458 217° Southwest 404 465 38,000  Level Washington Center
Wed 03:13:20 PM 35.8097 -77.9306 217° Southwest 404 465 38,000  Level Washington Center
Wed 03:14:18 PM 35.7183 -78.0147 217° Southwest 409 471 38,000  Level Washington Center
Wed 03:15:19 PM 35.6292 -78.0989 218° Southwest 409 471 38,000  Level Washington Center
Wed 03:16:19 PM 35.5397 -78.1803 217° Southwest 409 471 38,000  Level Washington Center
Wed 03:17:20 PM 35.4461 -78.2639 216° Southwest 414 476 38,000  Level Washington Center
Wed 03:18:20 PM 35.3503 -78.3500 216° Southwest 419 482 38,000  Level Washington Center
Wed 03:19:21 PM 35.2500 -78.4458 218° Southwest 419 482 38,000  Level Washington Center
Wed 03:20:18 PM 35.1603 -78.5314 218° Southwest 424 488 38,000  Level Washington Center
Wed 03:21:19 PM 35.0683 -78.6169 217° Southwest 424 488 38,000  Level Washington Center
Wed 03:22:19 PM 34.9764 -78.7022 217° Southwest 424 488 38,000  Level Washington Center
Wed 03:24:45 PM 34.7597 -78.8950 216° Southwest 419 482 38,000  Level Jacksonville Center
Wed 03:25:45 PM 34.6664 -78.9800 217° Southwest 419 482 38,000  Level Jacksonville Center
Wed 03:26:45 PM 34.5753 -79.0622 217° Southwest 419 482 38,000 -50 Level Jacksonville Center
Wed 03:27:45 PM 34.4781 -79.1600 220° Southwest 419 482 37,900 -50 Descending Jacksonville Center
Wed 03:28:45 PM 34.3825 -79.2444 216° Southwest 425 489 37,900  Level Jacksonville Center
Wed 03:29:45 PM 34.2908 -79.3264 216° Southwest 425 489 37,900  Level Jacksonville Center
Wed 03:30:45 PM 34.1994 -79.4078 216° Southwest 420 483 37,900 -50 Level Jacksonville Center
Wed 03:31:45 PM 34.1178 -79.4789 216° Southwest 413 475 37,800 -550 Descending Jacksonville Center
Wed 03:32:45 PM 34.0261 -79.5600 216° Southwest 413 475 36,800 -1,000 Descending Jacksonville Center
Wed 03:33:45 PM 33.9322 -79.6436 216° Southwest 418 481 35,800 -1,000 Descending Jacksonville Center
Wed 03:34:45 PM 33.8406 -79.7247 216° Southwest 418 481 34,800 -1,000 Descending Jacksonville Center
Wed 03:35:45 PM 33.7464 -79.8053 215° Southwest 418 481 33,800 -1,000 Descending Jacksonville Center
Wed 03:36:45 PM 33.6547 -79.8883 217° Southwest 418 481 32,800 -1,000 Descending Jacksonville Center
Wed 03:37:45 PM 33.5606 -79.9714 216° Southwest 418 481 31,800 -1,000 Descending Jacksonville Center
Wed 03:38:45 PM 33.4686 -80.0542 217° Southwest 418 481 30,800 -1,000 Descending Jacksonville Center
Wed 03:39:45 PM 33.3783 -80.1342 217° Southwest 418 481 29,800 -1,000 Descending Jacksonville Center
Wed 03:40:45 PM 33.2842 -80.2167 216° Southwest 418 481 28,800 -1,100 Descending Jacksonville Center
Wed 03:41:45 PM 33.1797 -80.3039 215° Southwest 423 487 27,600 -1,200 Descending Jacksonville Center
Wed 03:42:45 PM 33.0872 -80.3861 217° Southwest 416 479 26,400 -1,150 Descending Jacksonville Center
Wed 03:43:45 PM 33.0072 -80.4553 216° Southwest 406 467 25,300 -1,400 Descending Jacksonville Center
Wed 03:44:45 PM 32.9211 -80.5267 215° Southwest 394 453 23,600 -2,100 Descending Jacksonville Center
Wed 03:45:45 PM 32.8367 -80.5983 215° Southwest 383 441 21,100 -2,500 Descending Jacksonville Center
Wed 03:46:45 PM 32.7567 -80.6669 216° Southwest 376 433 18,600 -2,450 Descending Jacksonville Center
Wed 03:47:45 PM 32.6783 -80.7331 215° Southwest 366 421 16,200 -2,450 Descending Jacksonville Center
Wed 03:48:45 PM 32.6003 -80.8014 216° Southwest 361 415 13,700 -2,500 Descending Jacksonville Center
Wed 03:49:45 PM 32.5219 -80.8647 214° Southwest 356 410 11,200 -2,050 Descending Jacksonville Center
Wed 03:50:45 PM 32.4478 -80.9356 219° Southwest 332 382 9,600 -1,550 Descending Jacksonville Center
Wed 03:51:45 PM 32.3797 -80.9886 213° Southwest 302 348 8,100 -800 Descending Jacksonville Center
Wed 03:52:45 PM 32.3050 -81.0097 193° South 297 342 8,000 -800 Descending Jacksonville Center
Wed 03:53:45 PM 32.2239 -81.0286 191° South 305 351 6,500 -1,800 Descending Jacksonville Center
Wed 03:54:45 PM 32.1344 -81.0525 193° South 305 351 4,400 -1,300 Descending Jacksonville Center
Wed 03:55:45 PM 32.0636 -81.0736 194° South 283 326 3,900 -850 Descending Jacksonville Center
Wed 03:56:45 PM 32.0228 -81.1333 231° Southwest 225 259 2,700 -1,000 Descending Jacksonville Center
Wed 03:57:45 PM 32.0297 -81.1919 278° West 199 229 1,900 -900 Descending Jacksonville Center
Wed 03:58:45 PM 32.0675 -81.2011 348° North 134 154 900 -800 Descending Jacksonville Center
Wed 03:59:45 PM 32.1031 -81.2053 354° North 115 132 300 11,550 Descending Jacksonville Center
Wed 04:00:45 PM 32.1306 -81.2367 316° Northwest 115 132 24,000 23,700 Climbing Jacksonville Center
Wed 04:02:00 PM 32.1167 -81.2000 North  Level FlightAware Approximate

Login

Don't have an account? Register now (free) for customized features, flight alerts, and more!